Terminal Aerodrome Forecast
Issued by NWS Hastings, NE

Home | Current Version | Previous Version | Text Only | Print | Product List | Glossary On
Versions: 1 2 3 4 5 6 7 8 9 10 11 12 13 14 15 16 17 18 19 20 21 22 23 24 25 26 27 28 29 30
000
FTUS43 KGID 192338
TAFGRI
TAF
KGRI 192338Z 2000/2024 21005KT 6SM -DZ BR SCT003 OVC010
     FM200100 15006KT 2SM -DZ BR OVC003
     FM200400 18005KT 1/2SM -DZ FG OVC003
     FM201600 16004KT 2SM BR OVC003
     FM201800 16005KT 6SM BR OVC003=

USA.gov is the U.S. government's official web portal to all federal, state and local government web resources and services.